Latest Weather Observations for Hope Banks Beacon

IDQ60801

Issued at 11:02 am EST Sunday 14 April 2024 (issued every 10 minutes, with the page automatically refreshed every 10 minutes)

About weather observations | Map of weather stations | Latest weather observations for QLD | Other Formats
Station Details ID: 200897 Name: HOPE BANKS BEACON Lat: -27.43 Lon: 153.29 Height: 7.0 m
Data from the previous 72 hours. | See also: Recent months for locations in Queensland
Date/Time
EST
Temp
°C
App
Temp
°C
Dew
Point
°C
Rel
Hum
%
Delta-T
°C
Wind Press
QNH
hPa
Press
MSL
hPa
Rain since
9am
mm
Dir  Spd
km/h
Gust
km/h
Spd
kts
Gust
kts
14/11:00am - - - - - SW 4 6 2 3 - - -
14/10:30am - - - - - SW 2 9 1 5 - - -
14/10:00am - - - - - S 2 9 1 5 - - -
14/09:30am - - - - - S 2 11 1 6 - - -
14/09:00am - - - - - S 2 20 1 11 - - -
14/08:30am - - - - - CALM 0 2 0 1 - - -
14/08:00am - - - - - S 7 7 4 4 - - -
14/07:30am - - - - - S 7 7 4 4 - - -
14/07:00am - - - - - SSW 7 9 4 5 - - -
14/06:30am - - - - - SW 7 11 4 6 - - -
14/06:00am - - - - - SE 9 11 5 6 - - -
14/05:30am - - - - - SSE 9 11 5 6 - - -
14/05:00am - - - - - SE 6 7 3 4 - - -
14/04:30am - - - - - ESE 6 6 3 3 - - -
14/04:00am - - - - - ESE 6 6 3 3 - - -
14/03:30am - - - - - E 6 6 3 3 - - -
14/03:00am - - - - - E 6 9 3 5 - - -
14/02:30am - - - - - E 7 9 4 5 - - -
14/02:00am - - - - - E 7 9 4 5 - - -
14/01:30am - - - - - E 11 13 6 7 - - -
14/01:00am - - - - - E 11 13 6 7 - - -
14/12:30am - - - - - E 11 13 6 7 - - -
14/12:00am - - - - - E 13 15 7 8 - - -
 
Date/Time
EST
Temp
°C
App
Temp
°C
Dew
Point
°C
Rel
Hum
%
Delta-T
°C
Wind Press
QNH
hPa
Press
MSL
hPa
Rain since
9am
mm
Dir  Spd
km/h
Gust
km/h
Spd
kts
Gust
kts
13/11:30pm - - - - - E 13 15 7 8 - - -
13/11:00pm - - - - - E 11 15 6 8 - - -
13/10:30pm - - - - - NE 13 17 7 9 - - -
13/10:00pm - - - - - NE 13 17 7 9 - - -
13/09:30pm - - - - - NE 13 17 7 9 - - -
13/09:00pm - - - - - NE 17 19 9 10 - - -
13/08:30pm - - - - - NE 15 19 8 10 - - -
13/08:00pm - - - - - NE 15 19 8 10 - - -
13/07:30pm - - - - - NE 15 17 8 9 - - -
13/07:00pm - - - - - NE 15 19 8 10 - - -
13/06:30pm - - - - - ENE 15 19 8 10 - - -
13/06:00pm - - - - - ENE 13 19 7 10 - - -
13/05:30pm - - - - - ENE 15 19 8 10 - - -
13/05:00pm - - - - - ENE 19 22 10 12 - - -
13/04:30pm - - - - - ENE 19 22 10 12 - - -
13/04:00pm - - - - - ENE 19 26 10 14 - - -
13/03:30pm - - - - - NE 15 20 8 11 - - -
13/03:00pm - - - - - NNE 9 15 5 8 - - -
13/02:30pm - - - - - NE 9 15 5 8 - - -
13/02:00pm - - - - - NE 13 19 7 10 - - -
13/01:30pm - - - - - CALM 0 9 0 5 - - -
13/01:00pm - - - - - ENE 2 7 1 4 - - -
13/12:30pm - - - - - ENE 6 9 3 5 - - -
13/12:00pm - - - - - SE 4 4 2 2 - - -
13/11:30am - - - - - CALM 0 7 0 4 - - -
13/11:00am - - - - - SSE 4 9 2 5 - - -
13/10:30am - - - - - S 11 15 6 8 - - -
13/10:00am - - - - - S 13 15 7 8 - - -
13/09:30am - - - - - S 11 13 6 7 - - -
13/09:00am - - - - - S 9 11 5 6 - - -
13/08:30am - - - - - SW 11 15 6 8 - - -
13/08:00am - - - - - ESE 6 9 3 5 - - -
13/07:30am - - - - - ESE 15 19 8 10 - - -
13/07:00am - - - - - SSE 15 20 8 11 - - -
13/06:30am - - - - - S 13 17 7 9 - - -
13/06:00am - - - - - SSW 13 15 7 8 - - -
13/05:30am - - - - - SSW 15 17 8 9 - - -
13/05:00am - - - - - SW 17 19 9 10 - - -
13/04:30am - - - - - SW 17 19 9 10 - - -
13/04:00am - - - - - WSW 15 17 8 9 - - -
13/03:30am - - - - - SW 11 11 6 6 - - -
13/03:00am - - - - - SW 9 11 5 6 - - -
13/02:30am - - - - - SW 9 13 5 7 - - -
13/02:00am - - - - - S 13 15 7 8 - - -
13/01:30am - - - - - S 15 17 8 9 - - -
13/01:00am - - - - - S 13 17 7 9 - - -
13/12:30am - - - - - S 15 17 8 9 - - -
13/12:00am - - - - - S 13 15 7 8 - - -
 
Date/Time
EST
Temp
°C
App
Temp
°C
Dew
Point
°C
Rel
Hum
%
Delta-T
°C
Wind Press
QNH
hPa
Press
MSL
hPa
Rain since
9am
mm
Dir  Spd
km/h
Gust
km/h
Spd
kts
Gust
kts
12/11:30pm - - - - - S 13 15 7 8 - - -
12/11:00pm - - - - - S 13 15 7 8 - - -
12/10:30pm - - - - - S 11 13 6 7 - - -
12/10:00pm - - - - - SE 11 15 6 8 - - -
12/09:30pm - - - - - SE 11 13 6 7 - - -
12/09:00pm - - - - - SE 11 15 6 8 - - -
12/08:30pm - - - - - SE 15 17 8 9 - - -
12/08:00pm - - - - - SE 19 22 10 12 - - -
12/07:30pm - - - - - SE 20 24 11 13 - - -
12/07:00pm - - - - - SE 24 28 13 15 - - -
12/06:30pm - - - - - SE 24 28 13 15 - - -
12/06:00pm - - - - - SE 26 30 14 16 - - -
12/05:30pm - - - - - SE 28 32 15 17 - - -
12/05:00pm - - - - - SE 26 32 14 17 - - -
12/04:30pm - - - - - SE 26 30 14 16 - - -
12/04:00pm - - - - - SE 26 32 14 17 - - -
12/03:30pm - - - - - SE 26 30 14 16 - - -
12/03:00pm - - - - - SE 22 28 12 15 - - -
12/02:30pm - - - - - SE 22 30 12 16 - - -
12/02:00pm - - - - - SE 24 28 13 15 - - -
12/01:30pm - - - - - SE 22 28 12 15 - - -
12/01:00pm - - - - - SE 20 24 11 13 - - -
12/12:30pm - - - - - SSE 20 26 11 14 - - -
12/12:00pm - - - - - SSE 22 26 12 14 - - -
12/11:30am - - - - - SSE 20 28 11 15 - - -
12/11:00am - - - - - SSE 20 26 11 14 - - -
12/10:30am - - - - - S 22 26 12 14 - - -
12/10:00am - - - - - SSE 20 26 11 14 - - -
12/09:30am - - - - - S 20 24 11 13 - - -
12/09:00am - - - - - SSW 15 19 8 10 - - -
12/08:30am - - - - - WSW 15 17 8 9 - - -
12/08:00am - - - - - WSW 17 20 9 11 - - -
12/07:30am - - - - - SW 19 20 10 11 - - -
12/07:00am - - - - - SW 20 24 11 13 - - -
12/06:30am - - - - - WSW 20 24 11 13 - - -
12/06:00am - - - - - SW 20 22 11 12 - - -
12/05:30am - - - - - SW 20 22 11 12 - - -
12/05:00am - - - - - SW 19 22 10 12 - - -
12/04:30am - - - - - SW 15 17 8 9 - - -
12/04:00am - - - - - SW 17 20 9 11 - - -
12/03:30am - - - - - SW 15 17 8 9 - - -
12/03:00am - - - - - SSW 15 20 8 11 - - -
12/02:30am - - - - - S 26 33 14 18 - - -
12/02:00am - - - - - S 26 32 14 17 - - -
12/01:30am - - - - - S 24 28 13 15 - - -
12/01:00am - - - - - S 24 28 13 15 - - -
12/12:30am - - - - - S 20 24 11 13 - - -
12/12:00am - - - - - S 24 30 13 16 - - -
 
Date/Time
EST
Temp
°C
App
Temp
°C
Dew
Point
°C
Rel
Hum
%
Delta-T
°C
Wind Press
QNH
hPa
Press
MSL
hPa
Rain since
9am
mm
Dir  Spd
km/h
Gust
km/h
Spd
kts
Gust
kts
11/11:30pm - - - - - SSE 32 37 17 20 - - -
11/11:00pm - - - - - SSE 32 37 17 20 - - -
11/10:30pm - - - - - SSE 30 35 16 19 - - -
11/10:00pm - - - - - SSE 30 35 16 19 - - -
11/09:30pm - - - - - SSE 28 35 15 19 - - -
11/09:00pm - - - - - SSE 28 35 15 19 - - -
11/08:30pm - - - - - SSE 28 37 15 20 - - -
11/08:00pm - - - - - SSE 28 33 15 18 - - -
11/07:30pm - - - - - SSE 30 35 16 19 - - -
11/07:00pm - - - - - SSE 33 39 18 21 - - -
11/06:30pm - - - - - SE 28 35 15 19 - - -
11/06:00pm - - - - - SE 28 33 15 18 - - -
11/05:30pm - - - - - SE 24 28 13 15 - - -
11/05:00pm - - - - - SE 26 30 14 16 - - -
11/04:30pm - - - - - SE 22 28 12 15 - - -
11/04:00pm - - - - - SE 19 28 10 15 - - -
11/03:30pm - - - - - SE 2 6 1 3 - - -
11/03:00pm - - - - - SE 19 24 10 13 - - -
11/02:30pm - - - - - SE 20 24 11 13 - - -
11/02:00pm - - - - - SE 19 20 10 11 - - -
11/01:30pm - - - - - SE 13 17 7 9 - - -
11/01:00pm - - - - - SE 13 15 7 8 - - -
11/12:30pm - - - - - SE 13 17 7 9 - - -
11/12:00pm - - - - - SSE 11 15 6 8 - - -
11/11:30am - - - - - SSE 15 17 8 9 - - -

Other formats

Comma delimited format used in spreadsheet applications
http://www.bom.gov.au/fwo/IDQ60801/IDQ60801.99497.axf

JavaScript Object Notation format (JSON) in row-major order
http://www.bom.gov.au/fwo/IDQ60801/IDQ60801.99497.json

Data quality

Most of these data are generated automatically and are frequently updated. Quality checks on data are not normally performed. It is possible for incorrect values to appear. Refer to information at About Latest Weather Observations and please check the disclaimer before using these data.